sensor_id;sensor_type;location;lat;lon;timestamp;temperature;humidity
22089;DHT22;11211;52.728;9.230;2022-12-18T00:01:41;5.70;59.10
22089;DHT22;11211;52.728;9.230;2022-12-18T00:04:18;5.80;58.90
22089;DHT22;11211;52.728;9.230;2022-12-18T00:06:46;5.80;58.70
22089;DHT22;11211;52.728;9.230;2022-12-18T00:09:13;5.80;58.90
22089;DHT22;11211;52.728;9.230;2022-12-18T00:11:40;5.90;58.90
22089;DHT22;11211;52.728;9.230;2022-12-18T00:14:07;5.70;58.20
22089;DHT22;11211;52.728;9.230;2022-12-18T00:16:33;5.60;58.30
22089;DHT22;11211;52.728;9.230;2022-12-18T00:19:04;5.40;58.40
22089;DHT22;11211;52.728;9.230;2022-12-18T00:21:32;5.30;58.80
22089;DHT22;11211;52.728;9.230;2022-12-18T00:24:00;5.30;58.80
22089;DHT22;11211;52.728;9.230;2022-12-18T00:26:28;5.20;58.80
22089;DHT22;11211;52.728;9.230;2022-12-18T00:28:57;5.20;59.10
22089;DHT22;11211;52.728;9.230;2022-12-18T00:31:25;5.20;59.10
22089;DHT22;11211;52.728;9.230;2022-12-18T00:33:53;5.40;59.30
22089;DHT22;11211;52.728;9.230;2022-12-18T00:36:24;5.50;58.90
22089;DHT22;11211;52.728;9.230;2022-12-18T00:38:53;5.60;58.90
22089;DHT22;11211;52.728;9.230;2022-12-18T00:41:20;5.60;59.40
22089;DHT22;11211;52.728;9.230;2022-12-18T00:44:00;5.50;58.50
22089;DHT22;11211;52.728;9.230;2022-12-18T00:46:27;5.70;58.90
22089;DHT22;11211;52.728;9.230;2022-12-18T00:48:54;5.60;58.40
22089;DHT22;11211;52.728;9.230;2022-12-18T00:51:22;5.40;58.40
22089;DHT22;11211;52.728;9.230;2022-12-18T00:53:49;5.20;58.40
22089;DHT22;11211;52.728;9.230;2022-12-18T00:56:16;5.00;58.20
22089;DHT22;11211;52.728;9.230;2022-12-18T00:58:43;4.90;58.60
22089;DHT22;11211;52.728;9.230;2022-12-18T01:01:09;4.80;58.70
22089;DHT22;11211;52.728;9.230;2022-12-18T01:03:36;4.80;58.90
22089;DHT22;11211;52.728;9.230;2022-12-18T01:06:06;5.00;59.40
22089;DHT22;11211;52.728;9.230;2022-12-18T01:08:34;5.10;59.40
22089;DHT22;11211;52.728;9.230;2022-12-18T01:11:06;5.20;59.00
22089;DHT22;11211;52.728;9.230;2022-12-18T01:13:33;5.30;59.00
22089;DHT22;11211;52.728;9.230;2022-12-18T01:16:00;5.30;58.90
22089;DHT22;11211;52.728;9.230;2022-12-18T01:18:27;5.30;58.70
22089;DHT22;11211;52.728;9.230;2022-12-18T01:20:54;5.40;59.00
22089;DHT22;11211;52.728;9.230;2022-12-18T01:23:20;5.40;58.50
22089;DHT22;11211;52.728;9.230;2022-12-18T01:25:48;5.20;58.40
22089;DHT22;11211;52.728;9.230;2022-12-18T01:28:15;5.00;58.50
22089;DHT22;11211;52.728;9.230;2022-12-18T01:30:42;4.90;58.80
22089;DHT22;11211;52.728;9.230;2022-12-18T01:33:08;4.90;58.80
22089;DHT22;11211;52.728;9.230;2022-12-18T01:35:40;4.90;59.10
22089;DHT22;11211;52.728;9.230;2022-12-18T01:38:07;4.80;59.00
22089;DHT22;11211;52.728;9.230;2022-12-18T01:40:34;4.80;59.40
22089;DHT22;11211;52.728;9.230;2022-12-18T01:43:02;5.00;59.30
22089;DHT22;11211;52.728;9.230;2022-12-18T01:45:29;5.10;59.20
22089;DHT22;11211;52.728;9.230;2022-12-18T01:47:58;5.10;58.70
22089;DHT22;11211;52.728;9.230;2022-12-18T01:50:29;5.10;58.90
22089;DHT22;11211;52.728;9.230;2022-12-18T01:52:59;5.10;58.60
22089;DHT22;11211;52.728;9.230;2022-12-18T01:55:30;5.20;59.20
22089;DHT22;11211;52.728;9.230;2022-12-18T01:57:59;5.30;58.60
22089;DHT22;11211;52.728;9.230;2022-12-18T02:00:28;5.10;58.10
22089;DHT22;11211;52.728;9.230;2022-12-18T02:02:55;4.90;58.50
22089;DHT22;11211;52.728;9.230;2022-12-18T02:05:29;4.70;58.30
22089;DHT22;11211;52.728;9.230;2022-12-18T02:08:07;4.70;58.70
22089;DHT22;11211;52.728;9.230;2022-12-18T02:10:41;4.70;58.90
22089;DHT22;11211;52.728;9.230;2022-12-18T02:13:14;4.70;58.90
22089;DHT22;11211;52.728;9.230;2022-12-18T02:15:51;4.80;59.30
22089;DHT22;11211;52.728;9.230;2022-12-18T02:18:22;5.00;59.20
22089;DHT22;11211;52.728;9.230;2022-12-18T02:20:58;5.10;58.90
22089;DHT22;11211;52.728;9.230;2022-12-18T02:23:41;5.10;59.10
22089;DHT22;11211;52.728;9.230;2022-12-18T02:26:18;5.00;58.80
22089;DHT22;11211;52.728;9.230;2022-12-18T02:28:49;5.20;58.70
22089;DHT22;11211;52.728;9.230;2022-12-18T02:31:21;5.10;58.50
22089;DHT22;11211;52.728;9.230;2022-12-18T02:33:50;5.00;58.30
22089;DHT22;11211;52.728;9.230;2022-12-18T02:36:20;5.10;58.80
22089;DHT22;11211;52.728;9.230;2022-12-18T02:38:48;5.00;58.40
22089;DHT22;11211;52.728;9.230;2022-12-18T02:41:18;4.90;58.40
22089;DHT22;11211;52.728;9.230;2022-12-18T02:43:48;4.90;58.50
22089;DHT22;11211;52.728;9.230;2022-12-18T02:46:31;5.00;59.20
22089;DHT22;11211;52.728;9.230;2022-12-18T02:49:08;5.20;59.20
22089;DHT22;11211;52.728;9.230;2022-12-18T02:51:43;5.40;58.90
22089;DHT22;11211;52.728;9.230;2022-12-18T02:54:20;5.30;58.60
22089;DHT22;11211;52.728;9.230;2022-12-18T02:56:51;5.40;58.80
22089;DHT22;11211;52.728;9.230;2022-12-18T02:59:25;5.20;58.20
22089;DHT22;11211;52.728;9.230;2022-12-18T03:01:58;5.10;58.40
22089;DHT22;11211;52.728;9.230;2022-12-18T03:04:30;5.10;58.80
22089;DHT22;11211;52.728;9.230;2022-12-18T03:07:03;5.10;58.50
22089;DHT22;11211;52.728;9.230;2022-12-18T03:09:34;5.20;58.90
22089;DHT22;11211;52.728;9.230;2022-12-18T03:12:07;5.10;58.60
22089;DHT22;11211;52.728;9.230;2022-12-18T03:14:54;5.10;58.70
22089;DHT22;11211;52.728;9.230;2022-12-18T03:17:25;5.10;58.60
22089;DHT22;11211;52.728;9.230;2022-12-18T03:19:54;5.30;59.30
22089;DHT22;11211;52.728;9.230;2022-12-18T03:22:24;5.50;58.80
22089;DHT22;11211;52.728;9.230;2022-12-18T03:24:54;5.50;58.50
22089;DHT22;11211;52.728;9.230;2022-12-18T03:27:25;5.50;58.60
22089;DHT22;11211;52.728;9.230;2022-12-18T03:29:56;5.40;58.20
22089;DHT22;11211;52.728;9.230;2022-12-18T03:32:35;5.20;57.90
22089;DHT22;11211;52.728;9.230;2022-12-18T03:35:05;5.20;58.30
22089;DHT22;11211;52.728;9.230;2022-12-18T03:37:33;5.10;58.30
22089;DHT22;11211;52.728;9.230;2022-12-18T03:40:00;5.10;58.30
22089;DHT22;11211;52.728;9.230;2022-12-18T03:42:32;5.20;58.50
22089;DHT22;11211;52.728;9.230;2022-12-18T03:45:09;5.20;58.60
22089;DHT22;11211;52.728;9.230;2022-12-18T03:47:42;5.20;58.60
22089;DHT22;11211;52.728;9.230;2022-12-18T03:50:14;5.20;58.30
22089;DHT22;11211;52.728;9.230;2022-12-18T03:52:47;5.20;58.60
22089;DHT22;11211;52.728;9.230;2022-12-18T03:55:17;5.40;58.70
22089;DHT22;11211;52.728;9.230;2022-12-18T03:57:46;5.40;58.30
22089;DHT22;11211;52.728;9.230;2022-12-18T04:00:17;5.50;59.10
22089;DHT22;11211;52.728;9.230;2022-12-18T04:02:46;5.50;58.50
22089;DHT22;11211;52.728;9.230;2022-12-18T04:05:14;5.30;58.10
22089;DHT22;11211;52.728;9.230;2022-12-18T04:07:42;5.30;58.30
22089;DHT22;11211;52.728;9.230;2022-12-18T04:10:10;5.40;58.40
22089;DHT22;11211;52.728;9.230;2022-12-18T04:12:38;5.50;58.30
22089;DHT22;11211;52.728;9.230;2022-12-18T04:15:08;5.50;58.00
22089;DHT22;11211;52.728;9.230;2022-12-18T04:17:35;5.50;58.20
22089;DHT22;11211;52.728;9.230;2022-12-18T04:20:02;5.50;58.20
22089;DHT22;11211;52.728;9.230;2022-12-18T04:22:29;5.50;58.10
22089;DHT22;11211;52.728;9.230;2022-12-18T04:24:55;5.50;58.00
22089;DHT22;11211;52.728;9.230;2022-12-18T04:27:22;5.50;58.10
22089;DHT22;11211;52.728;9.230;2022-12-18T04:29:49;5.50;58.10
22089;DHT22;11211;52.728;9.230;2022-12-18T04:32:17;5.50;58.10
22089;DHT22;11211;52.728;9.230;2022-12-18T04:34:44;5.60;58.10
22089;DHT22;11211;52.728;9.230;2022-12-18T04:37:10;5.60;58.10
22089;DHT22;11211;52.728;9.230;2022-12-18T04:39:37;5.60;58.10
22089;DHT22;11211;52.728;9.230;2022-12-18T04:42:04;5.60;58.20
22089;DHT22;11211;52.728;9.230;2022-12-18T04:44:31;5.60;58.30
22089;DHT22;11211;52.728;9.230;2022-12-18T04:46:58;5.60;58.10
22089;DHT22;11211;52.728;9.230;2022-12-18T04:49:26;5.60;58.00
22089;DHT22;11211;52.728;9.230;2022-12-18T04:51:52;5.60;58.20
22089;DHT22;11211;52.728;9.230;2022-12-18T04:54:19;5.60;58.20
22089;DHT22;11211;52.728;9.230;2022-12-18T04:56:46;5.70;58.40
22089;DHT22;11211;52.728;9.230;2022-12-18T04:59:13;5.60;58.20
22089;DHT22;11211;52.728;9.230;2022-12-18T05:01:39;5.50;58.40
22089;DHT22;11211;52.728;9.230;2022-12-18T05:04:06;5.40;58.70
22089;DHT22;11211;52.728;9.230;2022-12-18T05:06:34;5.30;58.60
22089;DHT22;11211;52.728;9.230;2022-12-18T05:09:01;5.30;58.90
22089;DHT22;11211;52.728;9.230;2022-12-18T05:11:28;5.30;59.00
22089;DHT22;11211;52.728;9.230;2022-12-18T05:13:55;5.30;58.90
22089;DHT22;11211;52.728;9.230;2022-12-18T05:16:22;5.30;58.70
22089;DHT22;11211;52.728;9.230;2022-12-18T05:18:48;5.30;58.90
22089;DHT22;11211;52.728;9.230;2022-12-18T05:21:15;5.30;58.90
22089;DHT22;11211;52.728;9.230;2022-12-18T05:23:43;5.30;58.70
22089;DHT22;11211;52.728;9.230;2022-12-18T05:26:15;5.30;58.90
22089;DHT22;11211;52.728;9.230;2022-12-18T05:28:42;5.40;59.00
22089;DHT22;11211;52.728;9.230;2022-12-18T05:31:09;5.40;58.90
22089;DHT22;11211;52.728;9.230;2022-12-18T05:33:36;5.30;59.00
22089;DHT22;11211;52.728;9.230;2022-12-18T05:36:05;5.40;58.90
22089;DHT22;11211;52.728;9.230;2022-12-18T05:38:33;5.60;59.50
22089;DHT22;11211;52.728;9.230;2022-12-18T05:41:02;5.60;58.60
22089;DHT22;11211;52.728;9.230;2022-12-18T05:43:29;5.70;58.60
22089;DHT22;11211;52.728;9.230;2022-12-18T05:45:56;5.50;58.50
22089;DHT22;11211;52.728;9.230;2022-12-18T05:48:23;5.40;58.30
22089;DHT22;11211;52.728;9.230;2022-12-18T05:50:50;5.30;58.60
22089;DHT22;11211;52.728;9.230;2022-12-18T05:53:19;5.20;58.90
22089;DHT22;11211;52.728;9.230;2022-12-18T05:55:46;5.30;58.90
22089;DHT22;11211;52.728;9.230;2022-12-18T05:58:15;5.30;58.90
22089;DHT22;11211;52.728;9.230;2022-12-18T06:00:43;5.30;59.00
22089;DHT22;11211;52.728;9.230;2022-12-18T06:03:11;5.30;58.90
22089;DHT22;11211;52.728;9.230;2022-12-18T06:05:40;5.40;59.10
22089;DHT22;11211;52.728;9.230;2022-12-18T06:08:07;5.40;58.70
22089;DHT22;11211;52.728;9.230;2022-12-18T06:10:34;5.40;58.80
22089;DHT22;11211;52.728;9.230;2022-12-18T06:13:01;5.50;58.80
22089;DHT22;11211;52.728;9.230;2022-12-18T06:15:29;5.60;58.50
22089;DHT22;11211;52.728;9.230;2022-12-18T06:17:56;5.60;58.30
22089;DHT22;11211;52.728;9.230;2022-12-18T06:20:23;5.60;58.50
22089;DHT22;11211;52.728;9.230;2022-12-18T06:22:50;5.40;58.20
22089;DHT22;11211;52.728;9.230;2022-12-18T06:25:16;5.40;58.70
22089;DHT22;11211;52.728;9.230;2022-12-18T06:27:43;5.40;58.70
22089;DHT22;11211;52.728;9.230;2022-12-18T06:30:11;5.30;58.60
22089;DHT22;11211;52.728;9.230;2022-12-18T06:32:39;5.30;58.90
22089;DHT22;11211;52.728;9.230;2022-12-18T06:35:07;5.40;59.00
22089;DHT22;11211;52.728;9.230;2022-12-18T06:37:33;5.40;59.00
22089;DHT22;11211;52.728;9.230;2022-12-18T06:40:00;5.40;59.10
22089;DHT22;11211;52.728;9.230;2022-12-18T06:42:28;5.40;59.10
22089;DHT22;11211;52.728;9.230;2022-12-18T06:44:55;5.60;58.90
22089;DHT22;11211;52.728;9.230;2022-12-18T06:47:22;5.60;58.50
22089;DHT22;11211;52.728;9.230;2022-12-18T06:49:50;5.60;58.70
22089;DHT22;11211;52.728;9.230;2022-12-18T06:52:17;5.50;58.60
22089;DHT22;11211;52.728;9.230;2022-12-18T06:54:43;5.40;58.70
22089;DHT22;11211;52.728;9.230;2022-12-18T06:57:10;5.40;59.10
22089;DHT22;11211;52.728;9.230;2022-12-18T06:59:37;5.30;59.00
22089;DHT22;11211;52.728;9.230;2022-12-18T07:02:04;5.30;59.30
22089;DHT22;11211;52.728;9.230;2022-12-18T07:04:31;5.30;59.00
22089;DHT22;11211;52.728;9.230;2022-12-18T07:06:59;5.30;59.00
22089;DHT22;11211;52.728;9.230;2022-12-18T07:09:26;5.30;59.10
22089;DHT22;11211;52.728;9.230;2022-12-18T07:11:53;5.40;59.40
22089;DHT22;11211;52.728;9.230;2022-12-18T07:14:19;5.60;59.50
22089;DHT22;11211;52.728;9.230;2022-12-18T07:16:46;5.60;59.40
22089;DHT22;11211;52.728;9.230;2022-12-18T07:19:13;5.60;59.10
22089;DHT22;11211;52.728;9.230;2022-12-18T07:21:50;5.60;61.00
22089;DHT22;11211;52.728;9.230;2022-12-18T07:34:19;5.30;60.20
22089;DHT22;11211;52.728;9.230;2022-12-18T07:36:46;5.20;59.50
22089;DHT22;11211;52.728;9.230;2022-12-18T07:39:13;5.10;59.20
22089;DHT22;11211;52.728;9.230;2022-12-18T07:41:40;5.10;59.50
22089;DHT22;11211;52.728;9.230;2022-12-18T07:44:11;5.20;59.10
22089;DHT22;11211;52.728;9.230;2022-12-18T07:46:38;5.10;58.60
22089;DHT22;11211;52.728;9.230;2022-12-18T07:49:05;5.00;58.60
22089;DHT22;11211;52.728;9.230;2022-12-18T07:51:33;5.00;58.60
22089;DHT22;11211;52.728;9.230;2022-12-18T07:54:00;4.70;58.70
22089;DHT22;11211;52.728;9.230;2022-12-18T07:56:27;4.60;58.70
22089;DHT22;11211;52.728;9.230;2022-12-18T07:58:54;4.60;59.10
22089;DHT22;11211;52.728;9.230;2022-12-18T08:01:21;4.60;58.90
22089;DHT22;11211;52.728;9.230;2022-12-18T08:03:47;4.60;59.30
22089;DHT22;11211;52.728;9.230;2022-12-18T08:06:14;4.70;59.20
22089;DHT22;11211;52.728;9.230;2022-12-18T08:08:43;4.70;59.10
22089;DHT22;11211;52.728;9.230;2022-12-18T08:11:09;4.60;59.30
22089;DHT22;11211;52.728;9.230;2022-12-18T08:13:36;4.80;59.30
22089;DHT22;11211;52.728;9.230;2022-12-18T08:16:05;5.00;59.60
22089;DHT22;11211;52.728;9.230;2022-12-18T08:18:32;5.10;59.20
22089;DHT22;11211;52.728;9.230;2022-12-18T08:21:07;5.10;58.90
22089;DHT22;11211;52.728;9.230;2022-12-18T08:23:34;5.00;58.90
22089;DHT22;11211;52.728;9.230;2022-12-18T08:26:02;5.00;59.10
22089;DHT22;11211;52.728;9.230;2022-12-18T08:28:29;5.00;59.30
22089;DHT22;11211;52.728;9.230;2022-12-18T08:30:56;5.00;59.30
22089;DHT22;11211;52.728;9.230;2022-12-18T08:33:23;5.00;59.30
22089;DHT22;11211;52.728;9.230;2022-12-18T08:35:49;5.00;59.50
22089;DHT22;11211;52.728;9.230;2022-12-18T08:38:16;5.20;59.70
22089;DHT22;11211;52.728;9.230;2022-12-18T08:40:43;5.50;60.10
22089;DHT22;11211;52.728;9.230;2022-12-18T08:43:11;5.40;59.60
22089;DHT22;11211;52.728;9.230;2022-12-18T08:45:56;5.30;59.80
22089;DHT22;11211;52.728;9.230;2022-12-18T08:48:23;5.50;59.30
22089;DHT22;11211;52.728;9.230;2022-12-18T08:50:57;5.40;58.70
22089;DHT22;11211;52.728;9.230;2022-12-18T08:53:24;5.50;58.80
22089;DHT22;11211;52.728;9.230;2022-12-18T08:55:51;5.30;58.70
22089;DHT22;11211;52.728;9.230;2022-12-18T08:58:19;5.30;59.00
22089;DHT22;11211;52.728;9.230;2022-12-18T09:00:46;5.20;58.90
22089;DHT22;11211;52.728;9.230;2022-12-18T09:03:21;5.30;59.30
22089;DHT22;11211;52.728;9.230;2022-12-18T09:12:54;5.40;59.00
22089;DHT22;11211;52.728;9.230;2022-12-18T09:15:25;5.40;59.00
22089;DHT22;11211;52.728;9.230;2022-12-18T09:18:06;5.40;58.70
22089;DHT22;11211;52.728;9.230;2022-12-18T09:20:38;5.30;59.00
22089;DHT22;11211;52.728;9.230;2022-12-18T09:23:05;5.30;59.00
22089;DHT22;11211;52.728;9.230;2022-12-18T09:25:33;5.40;59.00
22089;DHT22;11211;52.728;9.230;2022-12-18T09:28:01;5.50;59.10
22089;DHT22;11211;52.728;9.230;2022-12-18T09:30:29;5.40;59.10
22089;DHT22;11211;52.728;9.230;2022-12-18T09:32:58;5.50;59.80
22089;DHT22;11211;52.728;9.230;2022-12-18T09:35:25;5.70;60.20
22089;DHT22;11211;52.728;9.230;2022-12-18T09:37:54;5.50;59.10
22089;DHT22;11211;52.728;9.230;2022-12-18T09:40:22;5.70;60.20
22089;DHT22;11211;52.728;9.230;2022-12-18T09:42:54;5.80;60.20
22089;DHT22;11211;52.728;9.230;2022-12-18T09:45:22;5.90;60.10
22089;DHT22;11211;52.728;9.230;2022-12-18T09:47:52;5.90;60.00
22089;DHT22;11211;52.728;9.230;2022-12-18T09:50:26;5.90;60.20
22089;DHT22;11211;52.728;9.230;2022-12-18T09:52:56;5.90;60.30
22089;DHT22;11211;52.728;9.230;2022-12-18T09:55:30;5.90;60.60
22089;DHT22;11211;52.728;9.230;2022-12-18T09:58:04;5.90;60.60
22089;DHT22;11211;52.728;9.230;2022-12-18T10:00:33;5.90;60.50
22089;DHT22;11211;52.728;9.230;2022-12-18T10:03:11;5.90;61.20
22089;DHT22;11211;52.728;9.230;2022-12-18T10:13:17;6.10;61.20
22089;DHT22;11211;52.728;9.230;2022-12-18T10:16:09;6.20;60.80
22089;DHT22;11211;52.728;9.230;2022-12-18T10:22:00;6.10;61.20
22089;DHT22;11211;52.728;9.230;2022-12-18T10:24:34;6.20;61.50
22089;DHT22;11211;52.728;9.230;2022-12-18T10:27:12;6.20;61.50
22089;DHT22;11211;52.728;9.230;2022-12-18T10:29:41;6.10;61.20
22089;DHT22;11211;52.728;9.230;2022-12-18T10:32:14;6.10;62.00
22089;DHT22;11211;52.728;9.230;2022-12-18T10:34:44;6.20;61.60
22089;DHT22;11211;52.728;9.230;2022-12-18T10:37:16;6.10;61.10
22089;DHT22;11211;52.728;9.230;2022-12-18T10:39:44;6.10;61.80
22089;DHT22;11211;52.728;9.230;2022-12-18T10:42:16;6.20;62.40
22089;DHT22;11211;52.728;9.230;2022-12-18T10:44:43;6.40;62.80
22089;DHT22;11211;52.728;9.230;2022-12-18T10:47:13;6.50;62.20
22089;DHT22;11211;52.728;9.230;2022-12-18T10:49:46;6.50;62.00
22089;DHT22;11211;52.728;9.230;2022-12-18T10:52:18;6.30;61.30
22089;DHT22;11211;52.728;9.230;2022-12-18T10:54:49;6.20;61.90
22089;DHT22;11211;52.728;9.230;2022-12-18T10:57:29;6.30;62.80
22089;DHT22;11211;52.728;9.230;2022-12-18T10:59:57;6.10;61.50
22089;DHT22;11211;52.728;9.230;2022-12-18T11:02:27;6.20;63.40
22089;DHT22;11211;52.728;9.230;2022-12-18T11:04:54;6.10;62.90
22089;DHT22;11211;52.728;9.230;2022-12-18T11:07:22;6.30;63.60
22089;DHT22;11211;52.728;9.230;2022-12-18T11:10:00;6.30;63.10
22089;DHT22;11211;52.728;9.230;2022-12-18T11:12:28;6.30;62.90
22089;DHT22;11211;52.728;9.230;2022-12-18T11:14:57;6.40;63.30
22089;DHT22;11211;52.728;9.230;2022-12-18T11:17:28;6.40;63.00
22089;DHT22;11211;52.728;9.230;2022-12-18T11:19:57;6.60;63.70
22089;DHT22;11211;52.728;9.230;2022-12-18T11:22:27;6.60;63.40
22089;DHT22;11211;52.728;9.230;2022-12-18T11:24:57;6.60;63.60
22089;DHT22;11211;52.728;9.230;2022-12-18T11:27:25;6.50;63.40
22089;DHT22;11211;52.728;9.230;2022-12-18T11:29:52;6.40;64.40
22089;DHT22;11211;52.728;9.230;2022-12-18T11:32:27;6.90;66.40
22089;DHT22;11211;52.728;9.230;2022-12-18T11:34:59;6.80;64.40
22089;DHT22;11211;52.728;9.230;2022-12-18T11:37:29;6.50;63.50
22089;DHT22;11211;52.728;9.230;2022-12-18T11:40:00;6.40;64.00
22089;DHT22;11211;52.728;9.230;2022-12-18T11:42:34;6.50;65.00
22089;DHT22;11211;52.728;9.230;2022-12-18T11:45:17;6.40;64.00
22089;DHT22;11211;52.728;9.230;2022-12-18T11:47:52;6.50;64.50
22089;DHT22;11211;52.728;9.230;2022-12-18T11:50:24;6.80;64.70
22089;DHT22;11211;52.728;9.230;2022-12-18T11:52:52;6.80;63.70
22089;DHT22;11211;52.728;9.230;2022-12-18T11:55:23;6.60;64.40
22089;DHT22;11211;52.728;9.230;2022-12-18T11:58:00;6.90;65.60
22089;DHT22;11211;52.728;9.230;2022-12-18T12:00:30;7.20;65.50
22089;DHT22;11211;52.728;9.230;2022-12-18T12:03:12;7.10;64.50
22089;DHT22;11211;52.728;9.230;2022-12-18T12:05:50;7.00;64.90
22089;DHT22;11211;52.728;9.230;2022-12-18T12:08:29;7.00;65.70
22089;DHT22;11211;52.728;9.230;2022-12-18T12:11:07;6.90;64.70
22089;DHT22;11211;52.728;9.230;2022-12-18T12:13:46;7.10;66.80
22089;DHT22;11211;52.728;9.230;2022-12-18T12:16:19;7.10;66.60
22089;DHT22;11211;52.728;9.230;2022-12-18T12:19:01;7.10;67.10
22089;DHT22;11211;52.728;9.230;2022-12-18T12:21:35;7.30;67.30
22089;DHT22;11211;52.728;9.230;2022-12-18T12:24:15;7.40;66.60
22089;DHT22;11211;52.728;9.230;2022-12-18T12:26:52;7.50;66.60
22089;DHT22;11211;52.728;9.230;2022-12-18T12:29:34;7.60;66.80
22089;DHT22;11211;52.728;9.230;2022-12-18T12:32:15;7.70;66.30
22089;DHT22;11211;52.728;9.230;2022-12-18T12:34:53;7.80;66.70
22089;DHT22;11211;52.728;9.230;2022-12-18T12:37:28;7.60;65.30
22089;DHT22;11211;52.728;9.230;2022-12-18T12:40:02;7.50;66.00
22089;DHT22;11211;52.728;9.230;2022-12-18T12:42:32;7.30;65.60
22089;DHT22;11211;52.728;9.230;2022-12-18T12:45:22;7.40;66.50
22089;DHT22;11211;52.728;9.230;2022-12-18T12:47:53;7.50;67.00
22089;DHT22;11211;52.728;9.230;2022-12-18T12:50:21;7.60;67.20
22089;DHT22;11211;52.728;9.230;2022-12-18T12:52:52;7.50;66.80
22089;DHT22;11211;52.728;9.230;2022-12-18T12:55:22;7.60;67.30
22089;DHT22;11211;52.728;9.230;2022-12-18T12:57:57;7.60;67.50
22089;DHT22;11211;52.728;9.230;2022-12-18T13:00:30;7.60;67.10
22089;DHT22;11211;52.728;9.230;2022-12-18T13:03:07;7.80;66.90
22089;DHT22;11211;52.728;9.230;2022-12-18T13:05:41;7.80;66.70
22089;DHT22;11211;52.728;9.230;2022-12-18T13:08:12;7.90;67.10
22089;DHT22;11211;52.728;9.230;2022-12-18T13:10:41;8.00;66.70
22089;DHT22;11211;52.728;9.230;2022-12-18T13:13:09;8.00;66.70
22089;DHT22;11211;52.728;9.230;2022-12-18T13:15:38;8.00;66.50
22089;DHT22;11211;52.728;9.230;2022-12-18T13:18:16;8.00;66.20
22089;DHT22;11211;52.728;9.230;2022-12-18T13:20:45;8.00;66.50
22089;DHT22;11211;52.728;9.230;2022-12-18T13:23:25;8.00;66.80
22089;DHT22;11211;52.728;9.230;2022-12-18T13:25:55;8.10;67.40
22089;DHT22;11211;52.728;9.230;2022-12-18T13:28:24;8.20;67.10
22089;DHT22;11211;52.728;9.230;2022-12-18T13:31:11;8.20;66.20
22089;DHT22;11211;52.728;9.230;2022-12-18T13:33:47;8.10;66.20
22089;DHT22;11211;52.728;9.230;2022-12-18T13:36:30;8.00;66.20
22089;DHT22;11211;52.728;9.230;2022-12-18T13:42:39;8.10;66.70
22089;DHT22;11211;52.728;9.230;2022-12-18T13:45:42;8.10;66.90
22089;DHT22;11211;52.728;9.230;2022-12-18T13:48:20;8.10;66.60
22089;DHT22;11211;52.728;9.230;2022-12-18T13:50:53;8.10;66.40
22089;DHT22;11211;52.728;9.230;2022-12-18T13:53:21;8.10;66.40
22089;DHT22;11211;52.728;9.230;2022-12-18T13:55:50;8.00;66.20
22089;DHT22;11211;52.728;9.230;2022-12-18T13:58:18;7.90;66.80
22089;DHT22;11211;52.728;9.230;2022-12-18T14:00:45;8.00;66.80
22089;DHT22;11211;52.728;9.230;2022-12-18T14:03:18;8.10;66.80
22089;DHT22;11211;52.728;9.230;2022-12-18T14:05:45;8.00;66.50
22089;DHT22;11211;52.728;9.230;2022-12-18T14:08:16;8.00;66.40
22089;DHT22;11211;52.728;9.230;2022-12-18T14:10:45;7.90;66.20
22089;DHT22;11211;52.728;9.230;2022-12-18T14:13:17;8.00;66.00
22089;DHT22;11211;52.728;9.230;2022-12-18T14:15:49;8.00;65.50
22089;DHT22;11211;52.728;9.230;2022-12-18T14:18:20;8.00;66.30
22089;DHT22;11211;52.728;9.230;2022-12-18T14:20:49;8.20;66.40
22089;DHT22;11211;52.728;9.230;2022-12-18T14:23:37;8.40;66.50
22089;DHT22;11211;52.728;9.230;2022-12-18T14:26:22;8.40;66.50
22089;DHT22;11211;52.728;9.230;2022-12-18T14:28:51;8.40;65.20
22089;DHT22;11211;52.728;9.230;2022-12-18T14:31:23;8.40;67.60
22089;DHT22;11211;52.728;9.230;2022-12-18T14:33:50;8.20;65.70
22089;DHT22;11211;52.728;9.230;2022-12-18T14:36:19;8.10;66.80
22089;DHT22;11211;52.728;9.230;2022-12-18T14:38:49;8.20;66.60
22089;DHT22;11211;52.728;9.230;2022-12-18T14:41:18;8.30;66.30
22089;DHT22;11211;52.728;9.230;2022-12-18T14:43:47;8.30;66.10
22089;DHT22;11211;52.728;9.230;2022-12-18T14:46:32;8.30;66.00
22089;DHT22;11211;52.728;9.230;2022-12-18T14:49:01;8.40;66.30
22089;DHT22;11211;52.728;9.230;2022-12-18T14:51:30;8.40;65.90
22089;DHT22;11211;52.728;9.230;2022-12-18T14:53:58;8.30;64.90
22089;DHT22;11211;52.728;9.230;2022-12-18T14:56:27;8.50;65.90
22089;DHT22;11211;52.728;9.230;2022-12-18T14:58:56;8.30;63.80
22089;DHT22;11211;52.728;9.230;2022-12-18T15:01:27;8.50;66.80
22089;DHT22;11211;52.728;9.230;2022-12-18T15:03:56;8.30;65.20
22089;DHT22;11211;52.728;9.230;2022-12-18T15:06:27;8.30;64.60
22089;DHT22;11211;52.728;9.230;2022-12-18T15:08:55;8.20;64.30
22089;DHT22;11211;52.728;9.230;2022-12-18T15:11:34;8.00;63.80
22089;DHT22;11211;52.728;9.230;2022-12-18T15:14:23;8.00;64.20
22089;DHT22;11211;52.728;9.230;2022-12-18T15:16:53;8.10;63.80
22089;DHT22;11211;52.728;9.230;2022-12-18T15:19:22;8.10;64.10
22089;DHT22;11211;52.728;9.230;2022-12-18T15:21:53;8.10;64.10
22089;DHT22;11211;52.728;9.230;2022-12-18T15:24:24;8.10;64.30
22089;DHT22;11211;52.728;9.230;2022-12-18T15:26:53;8.10;64.10
22089;DHT22;11211;52.728;9.230;2022-12-18T15:29:21;8.20;64.10
22089;DHT22;11211;52.728;9.230;2022-12-18T15:31:59;8.30;64.40
22089;DHT22;11211;52.728;9.230;2022-12-18T15:34:28;8.30;63.70
22089;DHT22;11211;52.728;9.230;2022-12-18T15:36:55;8.30;64.30
22089;DHT22;11211;52.728;9.230;2022-12-18T15:39:22;8.30;64.50
22089;DHT22;11211;52.728;9.230;2022-12-18T15:41:49;8.40;64.70
22089;DHT22;11211;52.728;9.230;2022-12-18T15:44:33;8.30;63.80
22089;DHT22;11211;52.728;9.230;2022-12-18T15:47:00;8.20;64.70
22089;DHT22;11211;52.728;9.230;2022-12-18T15:49:29;8.20;63.80
22089;DHT22;11211;52.728;9.230;2022-12-18T15:51:58;8.10;63.40
22089;DHT22;11211;52.728;9.230;2022-12-18T15:54:25;8.40;65.20
22089;DHT22;11211;52.728;9.230;2022-12-18T15:57:10;8.50;63.90
22089;DHT22;11211;52.728;9.230;2022-12-18T15:59:49;8.40;63.20
22089;DHT22;11211;52.728;9.230;2022-12-18T16:02:17;8.20;62.90
22089;DHT22;11211;52.728;9.230;2022-12-18T16:04:46;8.20;63.30
22089;DHT22;11211;52.728;9.230;2022-12-18T16:07:13;8.20;63.10
22089;DHT22;11211;52.728;9.230;2022-12-18T16:09:39;8.20;62.40
22089;DHT22;11211;52.728;9.230;2022-12-18T16:12:15;8.20;63.30
22089;DHT22;11211;52.728;9.230;2022-12-18T16:14:44;8.20;64.00
22089;DHT22;11211;52.728;9.230;2022-12-18T16:17:12;8.20;63.20
22089;DHT22;11211;52.728;9.230;2022-12-18T16:19:42;8.30;63.70
22089;DHT22;11211;52.728;9.230;2022-12-18T16:22:19;8.20;63.20
22089;DHT22;11211;52.728;9.230;2022-12-18T16:24:48;8.30;63.50
22089;DHT22;11211;52.728;9.230;2022-12-18T16:27:15;8.30;63.90
22089;DHT22;11211;52.728;9.230;2022-12-18T16:29:42;8.10;62.60
22089;DHT22;11211;52.728;9.230;2022-12-18T16:32:13;8.20;62.80
22089;DHT22;11211;52.728;9.230;2022-12-18T16:34:40;8.30;63.80
22089;DHT22;11211;52.728;9.230;2022-12-18T16:37:09;8.40;63.40